ADDS METAR Data INFO
IDs: Format: Raw Decoded Include TAF

Data at: 2256 UTC 22 Jun 2018

KRFD 222154Z 07004KT 10SM BKN021 OVC027 17/15 A2978 RMK AO2 DZE04 SLP084 P0000 T01720150
KRFD 222054Z 06011KT 8SM -DZ OVC017 18/16 A2978 RMK AO2 DZB47 SLP081 P0000 60000 T01780156 55002
KRFD 221954Z 06007KT 10SM BKN021 OVC033 19/15 A2977 RMK AO2 SLP077 T01890150
KRFD 221854Z 03012G20KT 10SM BKN018 BKN033 OVC150 19/15 A2977 RMK AO2 RAE06 SLP079 P0000 T01940150
KRFD 221812Z 04013KT 10SM BKN016 OVC044 17/14 A2978 RMK AO2 RAE06 P0000 T01720144
KRFD 221754Z 04011KT 10SM -RA FEW012 SCT018 OVC044 17/15 A2978 RMK AO2 SLP083 P0000 60020 T01720150 10172 20144 56014
KRFD 221654Z 04009KT 8SM -RA SCT021 BKN090 OVC110 16/14 A2979 RMK AO2 SLP086 P0003 T01610144
KRFD 221645Z 03011KT 8SM -RA FEW019 OVC100 16/14 A2979 RMK AO2 P0003 T01560139
KRFD 221629Z 04011KT 6SM -RA BR SCT017 BKN023 OVC100 15/13 A2980 RMK AO2 P0002 T01500133
KRFD 221606Z 03011KT 6SM -RA BR SCT016 BKN065 OVC100 14/13 A2981 RMK AO2 P0001 T01440128
KRFD 221554Z 03011KT 6SM -RA BR BKN016 BKN060 OVC090 14/13 A2981 RMK AO2 SLP094 P0007 T01440128
KRFD 221454Z 01011KT 4SM -RA BR BKN055 OVC070 14/13 A2982 RMK AO2 SLP097 P0010 60010 T01440133 52005
KRFD 221432Z 02012KT 4SM -RA BR SCT016 BKN050 OVC070 14/13 A2983 RMK AO2 P0007 T01440128
KRFD 221354Z 03011KT 10SM -RA BKN015 OVC065 16/13 A2982 RMK AO2 RAE06B23 SLP097 P0000 T01560133
KRFD 221343Z 03010KT 10SM OVC015 16/13 A2982 RMK AO2 RAE06B23E35 P0000 T01560133
KRFD 221309Z 05011KT 10SM BKN012 OVC024 16/14 A2981 RMK AO2 RAE06 P0000 T01560139
KRFD 221254Z 04008KT 10SM -RA FEW012 BKN024 OVC035 16/14 A2981 RMK AO2 RAB04 SLP092 P0000 T01560139
KRFD 221154Z 05010KT 10SM BKN038 BKN048 BKN110 16/14 A2979 RMK AO2 RAE12 SLP087 P0000 60005 70241 T01610139 10178 20161 53003
KRFD 221054Z 05011KT 10SM -RA BKN039 OVC046 16/14 A2979 RMK AO2 SLP085 P0000 T01610144
KRFD 220954Z 05011KT 10SM -RA FEW028 OVC036 16/14 A2978 RMK AO2 SLP084 P0003 T01610144
KRFD 220901Z 04008KT 5SM -RA BR FEW027 BKN034 OVC044 17/15 A2978 RMK AO2 P0001 T01670150
KRFD 220854Z 05007KT 10SM -RA BKN029 BKN037 OVC044 17/15 A2979 RMK AO2 SLP084 P0000 60002 T01670150 56006
KRFD 220840Z 04009KT 10SM -RA BKN029 BKN038 OVC050 17/15 A2978 RMK AO2 P0000 T01670150
KRFD 220754Z 04009KT 10SM -RA OVC040 17/15 A2979 RMK AO2 SLP084 P0001 T01670150
KRFD 220654Z 03009KT 10SM -RA FEW050 OVC060 17/14 A2979 RMK AO2 RAB18 SLP087 P0001 T01670144
KRFD 220554Z 05009KT 10SM FEW031 BKN041 OVC050 17/14 A2980 RMK AO2 SLP089 60001 T01720144 10178 20172 401830172 58004
KRFD 220454Z 07009KT 10SM OVC043 18/14 A2982 RMK AO2 SLP095 T01780144
KRFD 220354Z 06009KT 10SM OVC036 18/14 A2982 RMK AO2 SLP095 T01780144
KRFD 220254Z 05009KT 10SM OVC031 18/15 A2982 RMK AO2 SLP094 60001 T01780150 53007
KRFD 220240Z 06010KT 10SM OVC030 18/15 A2981 RMK AO2 T01780150
KRFD 220211Z 06009KT 10SM OVC028 18/16 A2981 RMK AO2 T01780156
KRFD 220154Z 06008KT 10SM FEW023 OVC030 18/16 A2980 RMK AO2 RAE21 SLP088 P0001 T01780156
KRFD 220136Z 06009KT 10SM SCT021 OVC030 18/16 A2980 RMK AO2 RAE21 P0001 T01780156
KRFD 220054Z 06010KT 10SM -RA SCT012 BKN017 OVC023 18/16 A2980 RMK AO2 RAE05B21E31B54DZB12E21 SLP088 P0000 T01780161
KRFD 212354Z 07010G18KT 4SM -RA BR OVC011 17/16 A2979 RMK AO2 RAB44 SLP086 P0000 60050 T01720161 10183 20172 50003
KRFD 212347Z 07012KT 5SM -RA BR BKN011 OVC019 17/16 A2979 RMK AO2 RAB44 P0000 T01720161
KRFD 212325Z 06010KT 10SM OVC017 18/16 A2979 RMK AO2 T01780156
KRFD 212254Z 07010KT 10SM OVC014 18/16 A2979 RMK AO2 SLP087 T01780156
KRFD 212154Z 07012KT 10SM OVC010 18/16 A2979 RMK AO2 LTG DSNT W SLP084 T01780156
KRFD 212111Z 07016G21KT 9SM OVC010 18/17 A2977 RMK AO2 T01830167
KRFD 212054Z 08012KT 8SM OVC009 18/17 A2978 RMK AO2 RAE35 SLP081 P0001 60050 T01830167 53000
KRFD 212039Z 08013G20KT 7SM OVC009 18/17 A2977 RMK AO2 RAE35 CIG 007V014 P0001 T01830172
KRFD 211954Z 08014KT 3SM -RA BR BKN011 BKN033 OVC080 18/17 A2978 RMK AO2 PK WND 07027/1919 SFC VIS 4 SLP080 P0029 T01830172
KRFD 211941Z 08013KT 2SM R01/6000VP6000FT RA BR BKN010 BKN027 OVC055 18/17 A2978 RMK AO2 PK WND 07027/1919 P0028 T01780172
KRFD 211928Z 08013G27KT 1SM R01/3000V5500FT +RA BR BKN010 BKN027 OVC047 18/17 A2978 RMK AO2 PK WND 07027/1919 TWR VIS 2 P0021 T01780167
KRFD 211914Z 08015G20KT 1 1/2SM RA BR BKN008 BKN034 OVC047 18/17 A2978 RMK AO2 TWR VIS 2 P0009 T01780167
KRFD 211854Z 07011G16KT 2SM R01/5000VP6000FT RA BR BKN007 BKN035 OVC045 18/17 A2977 RMK AO2 SLP078 P0020 T01780172
KRFD 211833Z 08011KT 1 1/2SM +RA BR BKN007 BKN010 OVC039 18/17 A2978 RMK AO2 TWR VIS 3 P0013 T01780172
KRFD 211821Z 08008KT 2SM R01/5500VP6000FT RA BR BKN006 OVC012 18/17 A2978 RMK AO2 TWR VIS 3 CIG 005V009 P0005 T01780172
KRFD 211754Z 08009KT 3SM -RA BR BKN008 BKN012 OVC031 18/17 A2978 RMK AO2 TWR VIS 4 SLP081 P0007 60185 T01830172 10183 20172 58003
KRFD 211742Z 08011KT 4SM -RA BR BKN009 BKN029 OVC046 18/17 A2978 RMK AO2 P0006 T01830172
KRFD 211730Z 08011KT 4SM -RA BR SCT009 BKN047 OVC060 18/17 A2978 RMK AO2 P0005 T01830172
KRFD 211654Z 06011KT 1 1/2SM R01/4000VP6000FT +RA BR BKN007 OVC023 18/17 A2979 RMK AO2 SLP085 P0035 T01830172
KRFD 211608Z 06009KT 1 1/2SM R01/4500VP6000FT RA BR BKN006 OVC024 18/18 A2979 RMK AO2 P0008 T01830178
KRFD 211554Z 06008KT 1SM R01/4500VP6000FT +RA BR BKN006 BKN011 OVC034 18/18 A2979 RMK AO2 TWR VIS 2 SLP084 P0034 T01830178
KRFD 211540Z 06007KT 1 1/2SM R01/5500VP6000FT RA BR SCT008 BKN025 OVC035 18/18 A2979 RMK AO2 TWR VIS 2 P0024 T01830178
KRFD 211454Z 06010KT 1 1/2SM -RA BR FEW005 BKN042 OVC060 18/17 A2979 RMK AO2 TWR VIS 2 SLP084 P0023 60109 T01780172 56007
KRFD 211444Z 07011KT 1 1/2SM R01/5000VP6000FT +RA BR FEW005 BKN042 OVC060 18/17 A2978 RMK AO2 TWR VIS 2 P0016 T01780172
KRFD 211436Z 07011KT 4SM RA BR FEW005 BKN042 OVC060 18/17 A2978 RMK AO2 P0010 T01780172
KRFD 211410Z 07011KT 2SM RA BR FEW005 SCT023 OVC032 18/17 A2979 RMK AO2 SFC VIS 3 P0005 T01780167
KRFD 211354Z 06009KT 2SM RA BR FEW004 BKN023 OVC030 17/17 A2979 RMK AO2 SLP086 P0084 T01720167
KRFD 211350Z 06009KT 1 1/2SM RA BR FEW004 BKN021 OVC028 17/17 A2980 RMK AO2 TWR VIS 2 P0083
KRFD 211342Z 06012KT 1SM R01/3500VP6000FT +RA BR FEW004 OVC017 17/17 A2980 RMK AO2 P0075 T01720167
KRFD 211334Z 06008KT 3/4SM R01/3000V3500FT +RA BR SCT006 BKN013 OVC037 17/17 A2980 RMK AO2 P0058 T01720167
KRFD 211327Z 06010KT 1SM R01/3000V3500FT +RA BR SCT006 BKN015 OVC037 17/17 A2980 RMK AO2 P0036 T01720167
KRFD 211317Z 06010KT 1SM R01/2800VP6000FT +RA BR BKN006 BKN015 OVC037 17/17 A2980 RMK AO2 P0004 T01720167
KRFD 211254Z 07006KT 3SM -RA BR OVC007 18/17 A2981 RMK AO2 RAB05 SLP090 P0002 T01780167
KRFD 211154Z 06006KT 4SM BR OVC008 18/16 A2981 RMK AO2 SLP090 60000 70001 T01780161 10178 20172 56002